Cutler Bay, Florida
Current Conditions -  °F | °C
As of 12:53 AM on Sunday 23 Nov 2014 (Local Time) from KTMB Reporting Station
Broken Clouds Broken Clouds  
Wind Chill: 24°   Ceiling: 2200
Heat Index: 24°   Visibility: 10mi
Dew Point: 22°   Wind: 13mph
Humidity: 87%   Direction: 120°ESE
Pressure: 30.05"   Gusts: NA
Location:  25.5586°N, 80.4556°W
Report Text: KTMB 230553Z AUTO 12011KT 10SM BKN022 BKN030 24/22 A3005 RMK AO2 SLP175 60000 T02440222 10250 20239 58009
Loading
Personal Weather Stations






























Interactive Weather Map New forecast layout! Learn more

10-Day Weather Forecast

Advertisements
Track Severe Weather on mobile